Keota, Oklahoma
Current Conditions -  °F | °C
As of 4:35 PM on Saturday 20 Dec 2014 (Local Time) from KGZL Reporting Station
Overcast Overcast  
Wind Chill: 44°   Ceiling: 2700
Heat Index: 46°   Visibility: 9mi
Dew Point: 39°   Wind: 5mph
Humidity: 76%   Direction: 130°SE
Pressure: 30.2"   Gusts: NA
Location:  35.26°N, 94.92°W
Report Text: KGZL 202235Z AUTO 13004KT 9SM SCT019 OVC027 08/04 A3020 RMK AO2
Loading
Personal Weather Stations






























Interactive Weather Map New forecast layout! Learn more

10-Day Weather Forecast

Advertisements
Track Severe Weather on mobile